createdAt,value
2023-03-18T00:00:32.654Z,100418.53
2023-03-18T00:01:37.458Z,100423.84
2023-03-18T00:02:44.783Z,100432.84
2023-03-18T00:03:48.882Z,100425.84
2023-03-18T00:04:52.843Z,100424.16
2023-03-18T00:06:04.727Z,100433.16
2023-03-18T00:07:06.326Z,100436.78
2023-03-18T00:08:09.588Z,100444.78
2023-03-18T00:09:12.402Z,100448.28
2023-03-18T00:10:16.707Z,100444.78
2023-03-18T00:11:21.252Z,100434.97
2023-03-18T00:12:24.754Z,100435.81
2023-03-18T00:13:27.383Z,100430.50
2023-03-18T00:14:29.905Z,100436.63
2023-03-18T00:15:33.055Z,100436.78
2023-03-18T00:16:36.673Z,100438.59
2023-03-18T00:17:40.070Z,100440.44
2023-03-18T00:18:43.771Z,100442.41
2023-03-18T00:19:46.025Z,100450.41
2023-03-18T00:20:48.535Z,100455.72
2023-03-18T00:21:50.165Z,100451.09
2023-03-18T00:22:52.678Z,100457.41
2023-03-18T00:23:56.510Z,100441.44
2023-03-18T00:24:59.107Z,100449.25
2023-03-18T00:26:01.308Z,100445.75
2023-03-18T00:27:03.815Z,100445.75
2023-03-18T00:28:06.977Z,100442.41
2023-03-18T00:29:09.672Z,100446.06
2023-03-18T00:30:12.580Z,100448.88
2023-03-18T00:31:16.572Z,100441.03
2023-03-18T00:32:18.179Z,100441.03
2023-03-18T00:33:21.123Z,100431.50
2023-03-18T00:34:22.775Z,100436.97
2023-03-18T00:35:27.945Z,100437.97
2023-03-18T00:36:31.062Z,100437.25
2023-03-18T00:37:35.670Z,100443.59
2023-03-18T00:38:37.429Z,100443.59
2023-03-18T00:39:44.177Z,100443.59
2023-03-18T00:40:53.550Z,100437.56
2023-03-18T00:41:57.016Z,100436.88
2023-03-18T00:43:07.830Z,100428.88
2023-03-18T00:44:11.312Z,100429.84
2023-03-18T00:45:14.228Z,100420.19
2023-03-18T00:46:22.050Z,100423.84
2023-03-18T00:47:23.670Z,100425.81
2023-03-18T00:48:27.556Z,100424.28
2023-03-18T00:49:29.493Z,100421.78
2023-03-18T00:50:32.456Z,100425.41
2023-03-18T00:51:36.399Z,100421.22
2023-03-18T00:52:39.486Z,100436.50
2023-03-18T00:53:41.555Z,100435.81
2023-03-18T00:54:44.044Z,100436.50
2023-03-18T00:55:46.381Z,100432.28
2023-03-18T00:56:49.482Z,100424.31
2023-03-18T00:57:51.173Z,100420.97
2023-03-18T00:58:54.740Z,100425.44
2023-03-18T00:59:56.965Z,100429.94
2023-03-18T01:00:59.481Z,100423.75
2023-03-18T01:02:03.991Z,100435.25
2023-03-18T01:03:07.741Z,100427.41
2023-03-18T01:04:09.596Z,100436.22
2023-03-18T01:05:13.910Z,100439.72
2023-03-18T01:06:22.828Z,100444.22
2023-03-18T01:07:25.853Z,100437.06
2023-03-18T01:08:27.421Z,100441.41
2023-03-18T01:09:30.032Z,100440.56
2023-03-18T01:10:32.708Z,100450.25
2023-03-18T01:11:35.746Z,100445.59
2023-03-18T01:12:38.926Z,100448.94
2023-03-18T01:13:42.973Z,100456.81
2023-03-18T01:14:44.502Z,100448.66
2023-03-18T01:15:47.989Z,100446.72
2023-03-18T01:16:49.698Z,100445.56
2023-03-18T01:17:56.819Z,100440.25
2023-03-18T01:18:58.493Z,100442.78
2023-03-18T01:20:00.963Z,100437.47
2023-03-18T01:21:02.735Z,100435.78
2023-03-18T01:22:06.448Z,100444.72
2023-03-18T01:23:08.788Z,100439.41
2023-03-18T01:24:11.500Z,100441.38
2023-03-18T01:25:16.194Z,100443.06
2023-03-18T01:26:19.253Z,100442.22
2023-03-18T01:27:21.440Z,100443.88
2023-03-18T01:28:24.690Z,100436.91
2023-03-18T01:29:26.744Z,100441.09
2023-03-18T01:30:30.074Z,100452.44
2023-03-18T01:31:34.551Z,100446.13
2023-03-18T01:32:37.883Z,100446.13
2023-03-18T01:33:41.547Z,100445.16
2023-03-18T01:34:44.125Z,100444.16
2023-03-18T01:35:47.699Z,100445.84
2023-03-18T01:36:50.499Z,100446.69
2023-03-18T01:37:53.318Z,100452.84
2023-03-18T01:38:56.221Z,100447.53
2023-03-18T01:39:58.286Z,100437.72
2023-03-18T01:41:01.823Z,100444.69
2023-03-18T01:42:03.715Z,100442.03
2023-03-18T01:43:14.373Z,100434.88
2023-03-18T01:44:19.132Z,100439.38
2023-03-18T01:45:25.491Z,100433.19
2023-03-18T01:46:36.272Z,100435.88
2023-03-18T01:47:39.550Z,100435.06
2023-03-18T01:48:43.669Z,100438.53
2023-03-18T01:49:49.135Z,100436.88
2023-03-18T01:50:54.145Z,100438.53
2023-03-18T01:52:00.143Z,100438.53
2023-03-18T01:53:06.207Z,100449.19
2023-03-18T01:54:10.338Z,100447.53
2023-03-18T01:55:15.553Z,100433.19
2023-03-18T01:56:19.845Z,100435.88
2023-03-18T01:57:23.929Z,100437.72
2023-03-18T01:58:31.954Z,100442.19
2023-03-18T01:59:38.415Z,100435.19
2023-03-18T02:00:45.890Z,100431.69
2023-03-18T02:01:53.765Z,100438.00
2023-03-18T02:02:56.517Z,100430.16
2023-03-18T02:04:02.249Z,100425.97
2023-03-18T02:05:09.847Z,100425.25
2023-03-18T02:06:12.497Z,100423.72
2023-03-18T02:07:17.003Z,100419.38
2023-03-18T02:08:18.621Z,100422.34
2023-03-18T02:09:21.327Z,100419.00
2023-03-18T02:10:25.227Z,100411.28
2023-03-18T02:11:29.044Z,100412.28
2023-03-18T02:12:33.710Z,100413.41
2023-03-18T02:13:39.421Z,100410.06
2023-03-18T02:14:41.282Z,100419.03
2023-03-18T02:15:49.873Z,100422.81
2023-03-18T02:16:59.245Z,100420.44
2023-03-18T02:18:06.254Z,100417.06
2023-03-18T02:19:37.138Z,100421.84
2023-03-18T02:20:49.429Z,100420.47
2023-03-18T02:21:56.453Z,100426.91
2023-03-18T02:23:05.053Z,100424.53
2023-03-18T02:24:19.044Z,100430.09
2023-03-18T02:25:34.645Z,100433.03
2023-03-18T02:26:44.448Z,100434.19
2023-03-18T02:27:52.164Z,100430.97
2023-03-18T02:28:58.285Z,100424.97
2023-03-18T02:30:04.058Z,100427.75
2023-03-18T02:31:12.832Z,100424.53
2023-03-18T02:32:17.137Z,100430.81
2023-03-18T02:33:21.113Z,100427.47
2023-03-18T02:34:26.003Z,100420.47
2023-03-18T02:35:29.038Z,100418.94
2023-03-18T02:36:34.360Z,100420.75
2023-03-18T02:37:35.910Z,100425.38
2023-03-18T02:38:42.729Z,100421.03
2023-03-18T02:39:44.290Z,100418.66
2023-03-18T02:40:46.984Z,100421.47
2023-03-18T02:41:48.779Z,100421.59
2023-03-18T02:43:19.258Z,100419.09
2023-03-18T02:44:22.269Z,100421.03
2023-03-18T02:45:38.441Z,100421.31
2023-03-18T02:46:53.914Z,100424.94
2023-03-18T02:47:58.302Z,100438.41
2023-03-18T02:49:02.624Z,100434.06
2023-03-18T02:50:04.893Z,100431.69
2023-03-18T02:51:09.001Z,100432.53
2023-03-18T02:52:10.877Z,100434.50
2023-03-18T02:53:14.158Z,100436.31
2023-03-18T02:54:21.245Z,100439.94
2023-03-18T02:55:26.973Z,100439.09
2023-03-18T02:56:28.570Z,100443.72
2023-03-18T02:57:31.326Z,100442.88
2023-03-18T02:58:34.539Z,100451.81
2023-03-18T02:59:40.263Z,100445.66
2023-03-18T03:00:41.894Z,100444.00
2023-03-18T03:01:48.157Z,100449.44
2023-03-18T03:02:50.750Z,100441.63
2023-03-18T03:03:53.660Z,100443.44
2023-03-18T03:04:55.270Z,100449.72
2023-03-18T03:05:58.107Z,100442.03
2023-03-18T03:07:01.430Z,100445.66
2023-03-18T03:08:04.598Z,100446.66
2023-03-18T03:09:08.351Z,100447.63
2023-03-18T03:10:12.462Z,100446.78
2023-03-18T03:11:14.293Z,100446.78
2023-03-18T03:12:16.779Z,100447.75
2023-03-18T03:13:23.000Z,100447.91
2023-03-18T03:14:26.909Z,100445.38
2023-03-18T03:15:29.327Z,100448.88
2023-03-18T03:16:32.100Z,100442.72
2023-03-18T03:17:33.629Z,100442.88
2023-03-18T03:18:36.687Z,100442.03
2023-03-18T03:19:38.449Z,100451.81
2023-03-18T03:20:41.762Z,100450.97
2023-03-18T03:21:43.339Z,100451.13
2023-03-18T03:22:46.490Z,100456.44
2023-03-18T03:23:49.619Z,100447.59
2023-03-18T03:24:52.386Z,100452.09
2023-03-18T03:25:54.252Z,100455.72
2023-03-18T03:26:56.956Z,100455.72
2023-03-18T03:27:58.828Z,100452.19
2023-03-18T03:29:01.562Z,100455.84
2023-03-18T03:30:06.944Z,100456.81
2023-03-18T03:31:10.642Z,100458.63
2023-03-18T03:32:12.222Z,100454.31
2023-03-18T03:33:15.543Z,100450.94
2023-03-18T03:34:17.111Z,100455.41
2023-03-18T03:35:21.396Z,100450.94
2023-03-18T03:36:23.190Z,100450.09
2023-03-18T03:37:25.742Z,100454.56
2023-03-18T03:38:28.375Z,100454.56
2023-03-18T03:39:30.054Z,100448.56
2023-03-18T03:40:33.905Z,100459.34
2023-03-18T03:41:35.698Z,100455.84
2023-03-18T03:42:38.351Z,100454.16
2023-03-18T03:43:40.637Z,100461.28
2023-03-18T03:44:43.370Z,100455.13
2023-03-18T03:45:46.417Z,100472.06
2023-03-18T03:46:49.186Z,100466.03
2023-03-18T03:47:51.341Z,100466.03
2023-03-18T03:48:54.036Z,100464.34
2023-03-18T03:49:56.220Z,100469.69
2023-03-18T03:50:58.759Z,100474.13
2023-03-18T03:52:00.312Z,100469.91
2023-03-18T03:53:04.006Z,100476.06
2023-03-18T03:54:05.569Z,100475.22
2023-03-18T03:55:10.329Z,100474.41
2023-03-18T03:56:13.731Z,100482.38
2023-03-18T03:57:15.239Z,100484.19
2023-03-18T03:58:17.714Z,100482.50
2023-03-18T03:59:19.243Z,100479.00
2023-03-18T04:00:24.369Z,100477.34
2023-03-18T04:01:35.392Z,100476.50
2023-03-18T04:02:38.097Z,100482.78
2023-03-18T04:03:40.697Z,100486.41
2023-03-18T04:04:42.425Z,100488.09
2023-03-18T04:05:45.046Z,100486.41
2023-03-18T04:06:46.574Z,100490.06
2023-03-18T04:07:49.884Z,100486.41
2023-03-18T04:08:51.548Z,100486.56
2023-03-18T04:09:55.812Z,100490.06
2023-03-18T04:10:57.789Z,100489.06
2023-03-18T04:12:00.378Z,100493.41
2023-03-18T04:13:02.253Z,100498.59
2023-03-18T04:14:04.836Z,100491.44
2023-03-18T04:15:07.894Z,100493.81
2023-03-18T04:16:10.504Z,100491.88
2023-03-18T04:17:14.103Z,100490.66
2023-03-18T04:18:16.833Z,100502.66
2023-03-18T04:19:28.913Z,100491.63
2023-03-18T04:20:31.813Z,100505.50
2023-03-18T04:21:33.503Z,100499.06
2023-03-18T04:22:37.501Z,100495.28
2023-03-18T04:23:39.030Z,100503.00
2023-03-18T04:24:42.492Z,100505.53
2023-03-18T04:25:44.619Z,100502.75
2023-03-18T04:26:47.097Z,100507.78
2023-03-18T04:27:48.688Z,100500.63
2023-03-18T04:28:51.978Z,100504.84
2023-03-18T04:29:53.572Z,100505.53
2023-03-18T04:30:56.047Z,100517.88
2023-03-18T04:31:58.892Z,100504.41
2023-03-18T04:33:03.282Z,100513.13
2023-03-18T04:34:05.130Z,100508.66
2023-03-18T04:35:08.749Z,100506.69
2023-03-18T04:36:10.556Z,100509.19
2023-03-18T04:37:14.388Z,100512.69
2023-03-18T04:38:16.072Z,100511.72
2023-03-18T04:39:18.898Z,100514.50
2023-03-18T04:40:20.708Z,100506.69
2023-03-18T04:41:23.660Z,100510.31
2023-03-18T04:42:25.624Z,100508.88
2023-03-18T04:43:28.368Z,100516.16
2023-03-18T04:44:29.873Z,100517.28
2023-03-18T04:45:32.385Z,100518.41
2023-03-18T04:46:34.038Z,100518.41
2023-03-18T04:47:38.042Z,100513.09
2023-03-18T04:48:42.214Z,100522.59
2023-03-18T04:49:43.863Z,100519.09
2023-03-18T04:50:46.759Z,100517.56
2023-03-18T04:51:48.321Z,100520.78
2023-03-18T04:52:51.457Z,100518.81
2023-03-18T04:53:53.643Z,100524.84
2023-03-18T04:54:56.534Z,100520.25
2023-03-18T04:55:58.127Z,100529.91
2023-03-18T04:57:00.665Z,100526.25
2023-03-18T04:58:03.313Z,100522.63
2023-03-18T04:59:05.467Z,100525.28
2023-03-18T05:00:15.174Z,100520.66
2023-03-18T05:01:21.207Z,100531.28
2023-03-18T05:02:24.077Z,100523.19
2023-03-18T05:03:25.835Z,100532.00
2023-03-18T05:04:29.853Z,100529.19
2023-03-18T05:05:31.687Z,100528.34
2023-03-18T05:06:34.640Z,100535.38
2023-03-18T05:07:36.729Z,100536.34
2023-03-18T05:08:39.596Z,100538.03
2023-03-18T05:09:41.484Z,100535.38
2023-03-18T05:10:44.945Z,100536.34
2023-03-18T05:11:46.485Z,100536.34
2023-03-18T05:12:51.472Z,100537.19
2023-03-18T05:13:53.025Z,100535.38
2023-03-18T05:14:55.709Z,100527.38
2023-03-18T05:15:57.355Z,100538.03
2023-03-18T05:16:59.982Z,100535.53
2023-03-18T05:18:01.675Z,100540.84
2023-03-18T05:19:04.219Z,100540.00
2023-03-18T05:20:10.022Z,100538.31
2023-03-18T05:21:12.887Z,100540.13
2023-03-18T05:22:16.308Z,100540.00
2023-03-18T05:23:18.885Z,100541.66
2023-03-18T05:24:20.447Z,100546.16
2023-03-18T05:25:23.002Z,100548.66
2023-03-18T05:26:26.937Z,100548.66
2023-03-18T05:27:29.769Z,100556.50
2023-03-18T05:28:31.476Z,100551.19
2023-03-18T05:29:34.160Z,100549.34
2023-03-18T05:30:42.924Z,100548.38
2023-03-18T05:31:45.583Z,100552.00
2023-03-18T05:32:47.274Z,100549.22
2023-03-18T05:33:49.889Z,100544.75
2023-03-18T05:34:51.554Z,100544.75
2023-03-18T05:35:55.561Z,100536.78
2023-03-18T05:36:57.600Z,100545.59
2023-03-18T05:38:00.316Z,100546.44
2023-03-18T05:39:03.138Z,100551.75
2023-03-18T05:40:09.748Z,100546.44
2023-03-18T05:41:12.722Z,100551.75
2023-03-18T05:42:15.292Z,100550.19
2023-03-18T05:43:16.957Z,100558.44
2023-03-18T05:44:19.555Z,100548.94
2023-03-18T05:45:21.265Z,100549.22
2023-03-18T05:46:23.796Z,100559.84
2023-03-18T05:47:25.449Z,100547.78
2023-03-18T05:48:28.001Z,100554.06
2023-03-18T05:49:29.609Z,100554.22
2023-03-18T05:50:33.086Z,100555.34
2023-03-18T05:51:37.358Z,100550.31
2023-03-18T05:52:39.856Z,100550.56
2023-03-18T05:53:41.429Z,100556.13
2023-03-18T05:54:44.620Z,100561.72
2023-03-18T05:55:46.543Z,100563.69
2023-03-18T05:56:58.124Z,100557.69
2023-03-18T05:58:00.271Z,100568.44
2023-03-18T05:59:03.351Z,100567.84
2023-03-18T06:00:08.119Z,100577.78
2023-03-18T06:01:11.609Z,100584.06
2023-03-18T06:02:13.284Z,100579.72
2023-03-18T06:03:17.076Z,100580.72
2023-03-18T06:04:19.291Z,100575.41
2023-03-18T06:05:22.636Z,100575.41
2023-03-18T06:06:24.707Z,100579.88
2023-03-18T06:07:28.808Z,100578.06
2023-03-18T06:08:30.489Z,100586.03
2023-03-18T06:09:34.224Z,100584.22
2023-03-18T06:10:35.885Z,100586.88
2023-03-18T06:11:39.953Z,100583.22
2023-03-18T06:12:42.254Z,100583.09
2023-03-18T06:13:45.055Z,100585.47
2023-03-18T06:14:46.820Z,100594.16
2023-03-18T06:15:49.307Z,100582.41
2023-03-18T06:16:50.892Z,100586.50
2023-03-18T06:17:53.620Z,100590.56
2023-03-18T06:18:55.417Z,100585.13
2023-03-18T06:19:59.009Z,100587.50
2023-03-18T06:21:00.707Z,100587.25
2023-03-18T06:22:03.278Z,100588.91
2023-03-18T06:23:06.147Z,100586.97
2023-03-18T06:24:10.609Z,100589.47
2023-03-18T06:25:12.120Z,100599.03
2023-03-18T06:26:15.118Z,100593.72
2023-03-18T06:27:16.692Z,100591.75
2023-03-18T06:28:19.575Z,100593.44
2023-03-18T06:29:21.240Z,100595.38
2023-03-18T06:30:24.287Z,100586.69
2023-03-18T06:31:28.963Z,100588.63
2023-03-18T06:32:31.727Z,100590.59
2023-03-18T06:33:33.256Z,100585.56
2023-03-18T06:34:36.170Z,100583.84
2023-03-18T06:35:37.986Z,100592.00
2023-03-18T06:36:40.547Z,100592.25
2023-03-18T06:37:43.300Z,100593.34
2023-03-18T06:38:47.297Z,100593.34
2023-03-18T06:39:49.371Z,100596.16
2023-03-18T06:40:52.225Z,100598.94
2023-03-18T06:41:54.925Z,100597.28
2023-03-18T06:42:57.540Z,100592.91
2023-03-18T06:43:59.391Z,100600.03
2023-03-18T06:45:01.930Z,100600.19
2023-03-18T06:46:05.144Z,100603.53
2023-03-18T06:47:06.854Z,100604.50
2023-03-18T06:48:10.366Z,100598.13
2023-03-18T06:49:12.623Z,100597.00
2023-03-18T06:50:15.239Z,100601.19
2023-03-18T06:51:16.746Z,100595.50
2023-03-18T06:52:19.945Z,100607.50
2023-03-18T06:53:21.959Z,100602.91
2023-03-18T06:54:26.185Z,100604.34
2023-03-18T06:55:28.116Z,100600.56
2023-03-18T06:56:30.639Z,100605.72
2023-03-18T06:57:32.700Z,100603.78
2023-03-18T06:58:35.267Z,100598.19
2023-03-18T06:59:37.394Z,100602.41
2023-03-18T07:00:41.460Z,100593.31
2023-03-18T07:01:45.516Z,100608.97
2023-03-18T07:02:48.269Z,100604.38
2023-03-18T07:03:51.041Z,100595.28
2023-03-18T07:04:54.575Z,100598.53
2023-03-18T07:05:57.211Z,100597.41
2023-03-18T07:07:00.244Z,100602.31
2023-03-18T07:08:02.105Z,100596.72
2023-03-18T07:09:04.870Z,100599.22
2023-03-18T07:10:11.583Z,100598.13
2023-03-18T07:11:14.208Z,100602.34
2023-03-18T07:12:16.437Z,100601.22
2023-03-18T07:13:19.301Z,100604.56
2023-03-18T07:14:21.441Z,100607.94
2023-03-18T07:15:26.380Z,100615.94
2023-03-18T07:16:28.012Z,100620.97
2023-03-18T07:17:30.885Z,100612.00
2023-03-18T07:18:32.713Z,100613.69
2023-03-18T07:19:35.433Z,100612.72
2023-03-18T07:20:37.212Z,100610.78
2023-03-18T07:21:42.272Z,100605.31
2023-03-18T07:22:45.451Z,100609.53
2023-03-18T07:23:48.162Z,100614.00
2023-03-18T07:24:51.314Z,100614.84
2023-03-18T07:25:55.184Z,100614.72
2023-03-18T07:26:57.470Z,100612.88
2023-03-18T07:28:01.136Z,100609.25
2023-03-18T07:29:03.392Z,100609.94
2023-03-18T07:30:06.657Z,100614.28
2023-03-18T07:31:08.688Z,100612.34
2023-03-18T07:32:11.288Z,100619.31
2023-03-18T07:33:17.363Z,100612.19
2023-03-18T07:34:21.193Z,100615.69
2023-03-18T07:35:22.810Z,100614.56
2023-03-18T07:36:25.614Z,100622.44
2023-03-18T07:37:27.440Z,100616.09
2023-03-18T07:38:31.410Z,100621.16
2023-03-18T07:39:33.579Z,100619.03
2023-03-18T07:40:36.411Z,100622.28
2023-03-18T07:41:40.313Z,100630.81
2023-03-18T07:42:41.873Z,100629.69
2023-03-18T07:43:45.052Z,100632.09
2023-03-18T07:44:46.631Z,100631.09
2023-03-18T07:45:49.222Z,100632.50
2023-03-18T07:46:50.895Z,100630.53
2023-03-18T07:47:53.721Z,100633.75
2023-03-18T07:48:55.422Z,100630.81
2023-03-18T07:49:59.003Z,100630.53
2023-03-18T07:51:01.151Z,100638.09
2023-03-18T07:52:04.599Z,100637.13
2023-03-18T07:53:06.345Z,100638.66
2023-03-18T07:54:08.843Z,100636.56
2023-03-18T07:55:10.562Z,100640.63
2023-03-18T07:56:13.131Z,100642.16
2023-03-18T07:57:16.092Z,100644.38
2023-03-18T07:58:18.619Z,100645.09
2023-03-18T07:59:20.755Z,100643.81
2023-03-18T08:00:24.052Z,100644.38
2023-03-18T08:01:32.968Z,100648.59
2023-03-18T08:02:36.137Z,100649.13
2023-03-18T08:03:37.809Z,100651.50
2023-03-18T08:04:40.537Z,100652.06
2023-03-18T08:05:42.171Z,100653.44
2023-03-18T08:06:44.914Z,100655.69
2023-03-18T08:07:46.477Z,100653.69
2023-03-18T08:08:49.209Z,100656.25
2023-03-18T08:09:50.923Z,100651.28
2023-03-18T08:10:58.471Z,100656.38
2023-03-18T08:12:00.265Z,100648.22
2023-03-18T08:13:04.804Z,100656.78
2023-03-18T08:14:06.342Z,100656.66
2023-03-18T08:15:11.347Z,100658.19
2023-03-18T08:16:13.439Z,100657.91
2023-03-18T08:17:16.098Z,100662.94
2023-03-18T08:18:17.728Z,100662.63
2023-03-18T08:19:20.286Z,100657.00
2023-03-18T08:20:22.983Z,100669.06
2023-03-18T08:21:25.594Z,100662.59
2023-03-18T08:22:28.056Z,100669.31
2023-03-18T08:23:30.585Z,100666.50
2023-03-18T08:24:32.744Z,100667.88
2023-03-18T08:25:35.718Z,100670.44
2023-03-18T08:26:37.502Z,100677.28
2023-03-18T08:27:40.104Z,100673.34
2023-03-18T08:28:44.609Z,100672.03
2023-03-18T08:29:46.679Z,100673.72
2023-03-18T08:30:49.218Z,100672.44
2023-03-18T08:31:51.241Z,100675.78
2023-03-18T08:32:53.893Z,100676.22
2023-03-18T08:33:57.036Z,100685.56
2023-03-18T08:34:59.577Z,100678.97
2023-03-18T08:36:02.562Z,100679.38
2023-03-18T08:37:06.004Z,100677.25
2023-03-18T08:38:07.587Z,100677.78
2023-03-18T08:39:14.486Z,100678.28
2023-03-18T08:40:17.799Z,100675.50
2023-03-18T08:41:20.537Z,100674.34
2023-03-18T08:42:22.273Z,100671.53
2023-03-18T08:43:25.698Z,100670.69
2023-03-18T08:44:28.583Z,100677.84
2023-03-18T08:45:31.440Z,100680.69
2023-03-18T08:46:33.384Z,100681.81
2023-03-18T08:47:36.018Z,100683.13
2023-03-18T08:48:43.399Z,100676.41
2023-03-18T08:49:46.123Z,100676.69
2023-03-18T08:50:48.158Z,100676.00
2023-03-18T08:51:50.738Z,100677.00
2023-03-18T08:52:52.350Z,100677.81
2023-03-18T08:53:55.125Z,100675.31
2023-03-18T08:54:56.805Z,100677.28
2023-03-18T08:56:02.799Z,100680.94
2023-03-18T08:57:05.642Z,100671.97
2023-03-18T08:58:08.331Z,100673.63
2023-03-18T08:59:11.735Z,100684.69
2023-03-18T09:00:16.141Z,100677.91
2023-03-18T09:01:24.088Z,100681.97
2023-03-18T09:02:25.945Z,100679.13
2023-03-18T09:03:28.598Z,100676.34
2023-03-18T09:04:30.412Z,100679.69
2023-03-18T09:05:34.281Z,100679.69
2023-03-18T09:06:36.358Z,100682.53
2023-03-18T09:07:48.907Z,100684.47
2023-03-18T09:08:50.634Z,100683.13
2023-03-18T09:09:54.016Z,100680.59
2023-03-18T09:10:55.559Z,100678.06
2023-03-18T09:11:58.487Z,100680.72
2023-03-18T09:13:01.714Z,100686.22
2023-03-18T09:14:03.415Z,100680.03
2023-03-18T09:15:07.374Z,100688.06
2023-03-18T09:16:10.740Z,100690.72
2023-03-18T09:17:14.528Z,100686.38
2023-03-18T09:18:16.817Z,100697.03
2023-03-18T09:19:19.348Z,100689.19
2023-03-18T09:20:22.215Z,100686.66
2023-03-18T09:21:25.081Z,100693.81
2023-03-18T09:22:27.595Z,100689.50
2023-03-18T09:23:30.154Z,100691.31
2023-03-18T09:24:31.734Z,100693.31
2023-03-18T09:25:35.160Z,100699.47
2023-03-18T09:26:36.941Z,100699.34
2023-03-18T09:27:39.468Z,100691.31
2023-03-18T09:28:41.004Z,100699.16
2023-03-18T09:29:43.503Z,100701.69
2023-03-18T09:30:45.107Z,100696.06
2023-03-18T09:31:49.146Z,100687.06
2023-03-18T09:32:50.851Z,100690.41
2023-03-18T09:33:53.565Z,100684.94
2023-03-18T09:34:55.219Z,100691.81
2023-03-18T09:35:57.859Z,100683.63
2023-03-18T09:36:59.579Z,100689.53
2023-03-18T09:38:02.239Z,100683.88
2023-03-18T09:39:03.982Z,100682.75
2023-03-18T09:40:08.628Z,100681.63
2023-03-18T09:41:24.854Z,100685.81
2023-03-18T09:42:40.439Z,100679.31
2023-03-18T09:43:54.638Z,100685.50
2023-03-18T09:45:00.844Z,100684.66
2023-03-18T09:46:09.395Z,100681.00
2023-03-18T09:47:25.403Z,100679.31
2023-03-18T09:48:44.234Z,100677.66
2023-03-18T09:49:59.192Z,100674.97
2023-03-18T09:51:07.666Z,100675.84
2023-03-18T09:52:22.272Z,100672.31
2023-03-18T09:53:30.985Z,100673.97
2023-03-18T09:54:39.143Z,100678.34
2023-03-18T09:55:46.546Z,100680.03
2023-03-18T09:56:51.076Z,100681.69
2023-03-18T09:57:58.386Z,100684.06
2023-03-18T09:59:04.317Z,100683.78
2023-03-18T10:00:17.510Z,100680.25
2023-03-18T10:01:27.414Z,100679.41
2023-03-18T10:02:36.532Z,100675.75
2023-03-18T10:03:43.710Z,100668.56
2023-03-18T10:04:50.993Z,100671.09
2023-03-18T10:05:57.531Z,100670.78
2023-03-18T10:07:05.211Z,100665.16
2023-03-18T10:08:13.917Z,100670.19
2023-03-18T10:09:26.188Z,100671.88
2023-03-18T10:10:33.642Z,100673.59
2023-03-18T10:11:40.442Z,100672.75
2023-03-18T10:12:58.108Z,100666.56
2023-03-18T10:14:17.516Z,100667.53
2023-03-18T10:15:24.884Z,100664.84
2023-03-18T10:16:31.935Z,100666.56
2023-03-18T10:17:40.016Z,100669.91
2023-03-18T10:18:44.617Z,100672.25
2023-03-18T10:19:50.714Z,100666.78
2023-03-18T10:21:02.717Z,100667.63
2023-03-18T10:22:23.321Z,100681.66
2023-03-18T10:23:37.160Z,100673.50
2023-03-18T10:24:47.950Z,100676.84
2023-03-18T10:25:54.482Z,100670.34
2023-03-18T10:27:08.732Z,100669.38
2023-03-18T10:28:33.396Z,100668.38
2023-03-18T10:29:42.815Z,100670.88
2023-03-18T10:30:57.683Z,100666.38
2023-03-18T10:32:09.293Z,100672.56
2023-03-18T10:33:22.582Z,100664.38
2023-03-18T10:34:31.090Z,100668.75
2023-03-18T10:35:39.652Z,100665.09
2023-03-18T10:36:50.923Z,100664.25
2023-03-18T10:38:02.268Z,100663.41
2023-03-18T10:39:07.843Z,100666.06
2023-03-18T10:40:15.795Z,100661.72
2023-03-18T10:41:25.373Z,100662.41
2023-03-18T10:42:38.090Z,100664.06
2023-03-18T10:43:40.819Z,100668.44
2023-03-18T10:44:42.872Z,100659.44
2023-03-18T10:45:59.674Z,100664.59
2023-03-18T10:47:06.231Z,100654.75
2023-03-18T10:48:20.119Z,100656.28
2023-03-18T10:49:25.626Z,100651.78
2023-03-18T10:50:34.922Z,100656.66
2023-03-18T10:51:43.530Z,100653.00
2023-03-18T10:52:53.972Z,100650.16
2023-03-18T10:54:03.506Z,100659.88
2023-03-18T10:55:14.474Z,100662.22
2023-03-18T10:56:17.014Z,100657.56
2023-03-18T10:57:19.878Z,100657.94
2023-03-18T10:58:22.885Z,100667.47
2023-03-18T10:59:26.381Z,100658.84
2023-03-18T11:00:33.009Z,100663.72
2023-03-18T11:01:40.761Z,100665.22
2023-03-18T11:02:42.584Z,100666.44
2023-03-18T11:03:51.565Z,100669.50
2023-03-18T11:04:57.738Z,100667.16
2023-03-18T11:06:04.372Z,100664.88
2023-03-18T11:07:12.601Z,100673.09
2023-03-18T11:08:32.525Z,100670.94
2023-03-18T11:09:36.851Z,100670.34
2023-03-18T11:10:45.775Z,100669.00
2023-03-18T11:11:49.764Z,100670.38
2023-03-18T11:12:55.607Z,100670.75
2023-03-18T11:13:59.753Z,100669.25
2023-03-18T11:15:06.678Z,100670.63
2023-03-18T11:16:22.546Z,100666.63
2023-03-18T11:17:29.217Z,100665.47
2023-03-18T11:18:34.076Z,100668.81
2023-03-18T11:19:41.177Z,100662.59
2023-03-18T11:20:45.504Z,100668.81
2023-03-18T11:22:06.762Z,100663.78
2023-03-18T11:23:17.530Z,100663.09
2023-03-18T11:24:36.179Z,100662.25
2023-03-18T11:25:40.506Z,100666.91
2023-03-18T11:26:48.591Z,100665.25
2023-03-18T11:27:52.959Z,100671.47
2023-03-18T11:28:56.804Z,100672.13
2023-03-18T11:30:01.447Z,100669.44
2023-03-18T11:31:06.411Z,100676.16
2023-03-18T11:32:25.695Z,100671.66
2023-03-18T11:33:32.875Z,100674.16
2023-03-18T11:34:37.677Z,100674.34
2023-03-18T11:35:44.800Z,100675.84
2023-03-18T11:36:54.157Z,100674.00
2023-03-18T11:37:56.758Z,100675.84
2023-03-18T11:39:03.847Z,100679.19
2023-03-18T11:40:29.823Z,100675.84
2023-03-18T11:41:31.811Z,100669.66
2023-03-18T11:42:34.674Z,100675.84
2023-03-18T11:43:37.788Z,100672.19
2023-03-18T11:44:40.387Z,100675.84
2023-03-18T11:45:56.789Z,100667.81
2023-03-18T11:47:07.338Z,100665.13
2023-03-18T11:48:15.372Z,100659.59
2023-03-18T11:49:23.088Z,100655.94
2023-03-18T11:50:35.191Z,100661.13
2023-03-18T11:51:47.541Z,100660.81
2023-03-18T11:52:56.890Z,100657.63
2023-03-18T11:54:31.109Z,100660.50
2023-03-18T11:55:42.186Z,100661.16
2023-03-18T11:56:48.377Z,100660.81
2023-03-18T11:58:29.553Z,100666.88
2023-03-18T11:59:42.007Z,100675.44
2023-03-18T12:00:55.227Z,100666.22
2023-03-18T12:02:19.512Z,100667.56
2023-03-18T12:03:45.647Z,100668.91
2023-03-18T12:05:01.126Z,100668.25
2023-03-18T12:06:14.456Z,100669.28
2023-03-18T12:07:32.415Z,100666.94
2023-03-18T12:08:47.890Z,100666.94
2023-03-18T12:09:56.825Z,100670.50
2023-03-18T12:11:07.645Z,100665.00
2023-03-18T12:12:29.044Z,100655.31
2023-03-18T12:13:39.513Z,100654.94
2023-03-18T12:14:47.691Z,100656.63
2023-03-18T12:15:54.842Z,100646.75
2023-03-18T12:17:08.055Z,100652.06
2023-03-18T12:18:26.623Z,100656.94
2023-03-18T12:19:45.994Z,100647.56